Terminal Aerodrome Forecast
Issued by NWS

Home | Current Version | Previous Version | Text Only | Print | Product List | Glossary On
Versions: 1 2 3 4 5 6 7 8 9 10 11 12 13 14 15 16 17 18 19 20
000
FTUS45 KBOU 252339
TAFBJC
TAF
KBJC 252339Z 2600/2624 06007KT P6SM FEW080 BKN150
     FM260200 34008KT P6SM SCT080 SCT140
     FM260800 25006KT P6SM SCT150
     FM261300 34008KT P6SM SCT060 BKN120
     FM261700 04011KT P6SM VCSH BKN060 OVC120
     FM262000 05010KT P6SM VCTS BKN050CB OVC090
      TEMPO 2620/2624 VRB20G30KT -TSRA BKN050CB=

USA.gov is the U.S. government's official web portal to all federal, state and local government web resources and services.